Startpagina
METAR-TAF:

METAR-TAF

Vliegvelden :

Fort Richardson, Alaska, Verenigde Staten

breedte: 61-15-45N, lengte: 149-39-17W, hoogte: 115 m

Actueel weer

Dit bericht is 31 minuten geleden gemaakt, om 01:58 UTC
Weinig wind
Temperatuur 14°C
Vochtigheid 67%
Druk 1022 hPa
Zicht: 14.5 km
Weinig wolken op 3000 ft
Geheel bewolkt op 6500 ft

METAR: PAFR 180158Z AUTO 00000KT 9SM FEW030 OVC065 14/08 A3018 RMK AO2 RAB18E33 SLP227 P0000 T01370077

Tijdstip: 18:29 (02:29 UTC)


TAF: ontbreekt

Waarnemingen en weersverwachtingen van meer dan 4000 vliegvelden (METAR en TAF).

De beschikbare stations zijn de gele en rode punten op de kaart.

Ga met uw muis naar het station om de naam te zien.

Klik dan om waarnemingen en weersverwachtingen te zien.

kaart wijzigen: klik op de groene knoppen met een zwart kruis om in te zoomen, op de groene knop met een streepje om uit te zoomen of op de groene pijlen voor aangrenzende kaarten.


METAR-TAF: